»·PEaware :: N899M KFAT-KLAX

N899M :: KFAT-KLAX

FLIGHT INFORMATION

Flight Status: Arrived
Operator: Privately registered:
United States
More flights under this callsign
Pilot: Robert C. (30425)
Aircraft: Unknown
(EPIC)
More flights by this aircraft type
Origin: KFAT Fresno Yosemite Intl
United States
Destination: KLAX Los Angeles Intl
United States
More flights between these airports :: More routes between these airports
Route: +TTE KIMMO3
File this flight plan on PilotEdge
Remarks:
Altitude:
(Current/Filed)
11,000ft
Speed:
(Current/Filed)
295kts
Departed: 08-Oct-20 07:02 PM
Arrived: 08-Oct-20 07:52 PM
Distance/Time
Traveled:
182nm/0:50
Distance/Time
To Go:
Arrived

Flight Plot

Page will automatically refresh every two minutes.

Flight plan parsing failed; only flown route is shown


Map Options




Map Legend


Flown Route
Filed Route
Departure Airport
Arrival Airport
Navaid (VOR, NDB)
Fix

Horizontal Profiles

Position Reports

Time Latitude Longitude Heading Altitude Ground
Speed
08-Oct-20 18:38 36.778927 -119.730531 214 336ft 0kts
08-Oct-20 18:38 36.778927 -119.730531 214 336ft 0kts
08-Oct-20 18:40 36.778927 -119.730531 214 336ft 0kts
08-Oct-20 18:40 36.778927 -119.730531 214 336ft 0kts
08-Oct-20 18:42 36.778927 -119.730531 214 336ft 0kts
08-Oct-20 18:42 36.778927 -119.730531 214 336ft 0kts
08-Oct-20 18:44 36.778927 -119.730531 214 336ft 0kts
08-Oct-20 18:44 36.778927 -119.730531 214 336ft 0kts
08-Oct-20 18:45 36.778927 -119.730531 214 336ft 0kts
08-Oct-20 18:46 36.778927 -119.730531 214 336ft 0kts
08-Oct-20 18:47 36.778927 -119.730531 214 336ft 0kts
08-Oct-20 18:48 36.778927 -119.730531 214 336ft 0kts
08-Oct-20 18:49 36.778927 -119.730531 214 336ft 0kts
08-Oct-20 18:50 36.778927 -119.730531 214 336ft 0kts
08-Oct-20 18:51 36.778927 -119.730531 214 336ft 0kts
08-Oct-20 18:52 36.778927 -119.730531 214 336ft 0kts
08-Oct-20 18:53 36.778762 -119.730035 110 336ft 4kts
08-Oct-20 18:54 36.779117 -119.727991 124 336ft 15kts
08-Oct-20 18:55 36.776068 -119.722630 125 336ft 0kts
08-Oct-20 18:56 36.775278 -119.721307 126 336ft 11kts
08-Oct-20 18:57 36.772622 -119.716706 126 336ft 20kts
08-Oct-20 18:58 36.769736 -119.710929 36 336ft 0kts
08-Oct-20 18:59 36.769737 -119.710928 36 336ft 0kts
08-Oct-20 19:00 36.771150 -119.711689 304 336ft 34kts
08-Oct-20 19:01 36.791572 -119.747339 304 895ft 177kts
08-Oct-20 19:02 36.820298 -119.798979 304 1926ft 176kts
08-Oct-20 19:03 36.825753 -119.849837 204 3311ft 182kts
08-Oct-20 19:04 36.782038 -119.821370 142 4733ft 188kts
08-Oct-20 19:05 36.739829 -119.781823 142 6136ft 190kts
08-Oct-20 19:06 36.695324 -119.740161 142 7457ft 232kts
08-Oct-20 19:07 36.637885 -119.686160 142 8915ft 277kts
08-Oct-20 19:08 36.574579 -119.626676 142 10329ft 291kts
08-Oct-20 19:09 36.508419 -119.564460 142 11000ft 307kts
08-Oct-20 19:10 36.441629 -119.501535 142 10999ft 297kts
08-Oct-20 19:11 36.376032 -119.439745 142 11002ft 294kts
08-Oct-20 19:12 36.311025 -119.378510 142 11005ft 293kts
08-Oct-20 19:13 36.246112 -119.317351 142 11007ft 293kts
08-Oct-20 19:14 36.181102 -119.256086 142 11009ft 293kts
08-Oct-20 19:15 36.116369 -119.195075 142 11009ft 293kts
08-Oct-20 19:16 36.051587 -119.134006 142 11009ft 292kts
08-Oct-20 19:17 35.987071 -119.073172 142 11009ft 292kts
08-Oct-20 19:18 35.916862 -119.023685 153 10998ft 293kts
08-Oct-20 19:19 35.839395 -118.993782 163 11008ft 292kts
08-Oct-20 19:20 35.761402 -118.965256 163 11003ft 292kts
08-Oct-20 19:21 35.683345 -118.936780 163 10997ft 292kts
08-Oct-20 19:22 35.605226 -118.908340 163 10993ft 292kts
08-Oct-20 19:23 35.527220 -118.880000 163 10990ft 291kts
08-Oct-20 19:24 35.449664 -118.851764 162 10990ft 291kts
08-Oct-20 19:25 35.371811 -118.823421 163 10990ft 291kts
08-Oct-20 19:26 35.294137 -118.795259 162 10992ft 293kts
08-Oct-20 19:27 35.215930 -118.766932 162 11011ft 293kts
08-Oct-20 19:28 35.137886 -118.738985 163 11074ft 292kts
08-Oct-20 19:29 35.059773 -118.711250 163 11142ft 292kts
08-Oct-20 19:30 34.981480 -118.683305 163 11164ft 294kts
08-Oct-20 19:31 34.902807 -118.655162 164 11125ft 298kts
08-Oct-20 19:32 34.823038 -118.626717 164 11091ft 298kts
08-Oct-20 19:33 34.743502 -118.598393 164 11030ft 299kts
08-Oct-20 19:34 34.664622 -118.565867 155 10991ft 299kts
08-Oct-20 19:35 34.589587 -118.522083 154 10988ft 298kts
08-Oct-20 19:36 34.514709 -118.478253 154 10989ft 298kts
08-Oct-20 19:37 34.443788 -118.436820 154 10983ft 298kts
08-Oct-20 19:38 34.369586 -118.393598 155 10739ft 285kts
08-Oct-20 19:39 34.302945 -118.354809 155 9712ft 249kts
08-Oct-20 19:40 34.243410 -118.320220 156 8687ft 228kts
08-Oct-20 19:41 34.187639 -118.287651 155 7672ft 218kts
08-Oct-20 19:42 34.133857 -118.256128 155 6666ft 213kts
08-Oct-20 19:43 34.080511 -118.224860 155 5505ft 212kts
08-Oct-20 19:44 34.029083 -118.194724 155 4103ft 194kts
08-Oct-20 19:45 33.985932 -118.195695 221 2973ft 146kts
08-Oct-20 19:46 33.957582 -118.224414 221 2978ft 123kts
08-Oct-20 19:47 33.948038 -118.266095 261 2995ft 145kts
08-Oct-20 19:48 33.942431 -118.317427 261 2349ft 142kts
08-Oct-20 19:49 33.940052 -118.352656 263 817ft 90kts
08-Oct-20 19:50 33.937580 -118.379722 264 183ft 74kts
08-Oct-20 19:51 33.935262 -118.393651 179 106ft 0kts
08-Oct-20 19:52 33.934787 -118.395755 264 108ft 20kts
08-Oct-20 19:53 33.932796 -118.397632 175 119ft 0kts
08-Oct-20 19:54 33.932796 -118.397632 175 119ft 0kts

Navigation Log

Ident Type
Flight plan parsing failed, navigation log unavailable